createdAt,value
2023-01-09T00:05:01.070Z,99409.97
2023-01-09T00:10:06.068Z,99389.84
2023-01-09T00:15:10.489Z,99397.56
2023-01-09T00:20:13.508Z,99386.00
2023-01-09T00:25:18.554Z,99371.78
2023-01-09T00:30:22.217Z,99390.00
2023-01-09T00:35:27.340Z,99394.97
2023-01-09T00:40:31.970Z,99400.91
2023-01-09T00:45:35.205Z,99406.75
2023-01-09T00:50:39.296Z,99404.72
2023-01-09T00:55:43.725Z,99399.31
2023-01-09T01:00:47.259Z,99407.81
2023-01-09T01:06:11.648Z,99398.84
2023-01-09T01:11:16.347Z,99403.66
2023-01-09T01:16:19.601Z,99410.56
2023-01-09T01:21:22.639Z,99419.06
2023-01-09T01:26:27.165Z,99419.72
2023-01-09T01:31:30.515Z,99424.06
2023-01-09T01:36:34.363Z,99434.19
2023-01-09T01:41:39.005Z,99437.84
2023-01-09T01:46:41.902Z,99426.09
2023-01-09T01:51:51.394Z,99424.94
2023-01-09T01:56:59.903Z,99429.81
2023-01-09T02:02:04.274Z,99432.16
2023-01-09T02:07:10.141Z,99431.09
2023-01-09T02:12:23.667Z,99428.34
2023-01-09T02:17:55.426Z,99422.69
2023-01-09T02:23:20.808Z,99416.31
2023-01-09T02:28:50.816Z,99434.56
2023-01-09T02:34:03.785Z,99420.41
2023-01-09T02:39:22.907Z,99427.28
2023-01-09T02:44:28.623Z,99426.25
2023-01-09T02:49:35.516Z,99432.22
2023-01-09T02:54:51.347Z,99430.41
2023-01-09T03:00:10.294Z,99424.28
2023-01-09T03:05:32.120Z,99423.28
2023-01-09T03:10:39.266Z,99415.31
2023-01-09T03:15:45.680Z,99431.59
2023-01-09T03:20:52.897Z,99422.78
2023-01-09T03:25:58.873Z,99412.22
2023-01-09T03:31:02.281Z,99413.16
2023-01-09T03:36:07.629Z,99408.63
2023-01-09T03:41:10.951Z,99411.19
2023-01-09T03:46:13.961Z,99417.19
2023-01-09T03:51:18.437Z,99411.78
2023-01-09T03:56:21.854Z,99404.06
2023-01-09T04:01:24.929Z,99407.56
2023-01-09T04:06:29.504Z,99416.69
2023-01-09T04:11:32.614Z,99418.41
2023-01-09T04:16:35.768Z,99411.91
2023-01-09T04:21:41.109Z,99405.34
2023-01-09T04:26:44.166Z,99410.94
2023-01-09T04:31:47.089Z,99407.53
2023-01-09T04:36:51.816Z,99399.19
2023-01-09T04:41:54.891Z,99392.09
2023-01-09T04:46:59.583Z,99395.84
2023-01-09T04:52:04.073Z,99384.22
2023-01-09T04:57:07.442Z,99392.16
2023-01-09T05:02:10.732Z,99381.63
2023-01-09T05:07:15.334Z,99386.13
2023-01-09T05:12:18.397Z,99380.75
2023-01-09T05:17:24.009Z,99381.00
2023-01-09T05:22:29.810Z,99385.00
2023-01-09T05:27:32.818Z,99380.91
2023-01-09T05:32:36.020Z,99376.72
2023-01-09T05:37:40.334Z,99371.72
2023-01-09T05:42:44.143Z,99377.22
2023-01-09T05:47:47.666Z,99372.00
2023-01-09T05:52:52.428Z,99361.50
2023-01-09T05:57:55.930Z,99368.59
2023-01-09T06:02:59.119Z,99360.09
2023-01-09T06:08:03.582Z,99347.16
2023-01-09T06:13:06.653Z,99363.13
2023-01-09T06:18:10.057Z,99352.69
2023-01-09T06:23:14.488Z,99372.72
2023-01-09T06:28:17.485Z,99364.03
2023-01-09T06:33:20.774Z,99364.97
2023-01-09T06:38:25.300Z,99363.94
2023-01-09T06:43:28.568Z,99347.56
2023-01-09T06:48:31.519Z,99358.22
2023-01-09T06:53:36.282Z,99359.84
2023-01-09T06:58:39.305Z,99366.97
2023-01-09T07:03:43.017Z,99373.06
2023-01-09T07:08:57.580Z,99394.97
2023-01-09T07:14:00.647Z,99406.31
2023-01-09T07:19:03.753Z,99417.53
2023-01-09T07:24:10.822Z,99459.44
2023-01-09T07:29:14.160Z,99455.06
2023-01-09T07:34:17.205Z,99454.94
2023-01-09T07:39:21.816Z,99454.03
2023-01-09T07:44:26.153Z,99485.47
2023-01-09T07:49:29.227Z,99498.44
2023-01-09T07:54:33.632Z,99492.44
2023-01-09T07:59:36.701Z,99501.19
2023-01-09T08:04:39.700Z,99510.78
2023-01-09T08:09:44.043Z,99504.72
2023-01-09T08:14:47.078Z,99515.25
2023-01-09T08:19:50.137Z,99530.91
2023-01-09T08:24:54.634Z,99534.31
2023-01-09T08:29:57.617Z,99545.81
2023-01-09T08:35:00.666Z,99550.69
2023-01-09T08:40:09.610Z,99565.00
2023-01-09T08:45:33.298Z,99563.06
2023-01-09T08:50:36.430Z,99591.88
2023-01-09T08:55:40.948Z,99583.06
2023-01-09T09:00:44.226Z,99593.50
2023-01-09T09:05:47.251Z,99613.06
2023-01-09T09:10:54.459Z,99610.69
2023-01-09T09:15:57.658Z,99630.56
2023-01-09T09:21:00.719Z,99640.38
2023-01-09T09:26:05.326Z,99644.50
2023-01-09T09:31:08.772Z,99652.00
2023-01-09T09:36:11.809Z,99671.41
2023-01-09T09:41:57.416Z,99685.38
2023-01-09T09:47:07.608Z,99714.41
2023-01-09T09:52:20.571Z,99732.16
2023-01-09T09:57:30.678Z,99746.88
2023-01-09T10:02:43.693Z,99753.69
2023-01-09T10:07:53.615Z,99759.38
2023-01-09T10:13:20.558Z,99763.69
2023-01-09T10:18:32.996Z,99772.59
2023-01-09T10:24:05.476Z,99768.72
2023-01-09T10:29:31.862Z,99772.75
2023-01-09T10:34:50.135Z,99790.94
2023-01-09T10:39:58.806Z,99797.59
2023-01-09T10:45:08.655Z,99811.63
2023-01-09T10:50:20.981Z,99822.69
2023-01-09T10:55:34.141Z,99826.06
2023-01-09T11:00:39.921Z,99839.69
2023-01-09T11:05:44.441Z,99833.94
2023-01-09T11:10:50.259Z,99848.13
2023-01-09T11:16:07.787Z,99846.84
2023-01-09T11:21:16.485Z,99866.44
2023-01-09T11:26:25.162Z,99871.34
2023-01-09T11:31:29.789Z,99867.38
2023-01-09T11:36:33.446Z,99882.66
2023-01-09T11:41:38.065Z,99884.59
2023-01-09T11:46:44.773Z,99868.34
2023-01-09T11:51:48.068Z,99877.16
2023-01-09T11:56:54.449Z,99894.22
2023-01-09T12:02:35.652Z,99891.81
2023-01-09T12:08:07.040Z,99901.47
2023-01-09T12:13:24.295Z,99910.44
2023-01-09T12:18:51.111Z,99911.91
2023-01-09T12:24:13.399Z,99911.38
2023-01-09T12:29:31.251Z,99921.59
2023-01-09T12:34:56.139Z,99921.44
2023-01-09T12:40:07.904Z,99918.09
2023-01-09T12:45:29.289Z,99930.72
2023-01-09T12:51:07.023Z,99943.59
2023-01-09T12:56:15.152Z,99949.88
2023-01-09T13:01:22.848Z,99946.53
2023-01-09T13:06:30.375Z,99953.97
2023-01-09T13:11:39.772Z,99954.16
2023-01-09T13:16:47.443Z,99966.50
2023-01-09T13:21:53.130Z,99962.63
2023-01-09T13:27:00.374Z,99973.03
2023-01-09T13:32:18.460Z,99982.88
2023-01-09T13:37:26.007Z,99980.06
2023-01-09T13:42:44.336Z,99987.78
2023-01-09T13:47:47.560Z,99991.69
2023-01-09T13:52:52.130Z,99999.25
2023-01-09T13:58:22.795Z,100012.34
2023-01-09T14:03:33.307Z,100011.38
2023-01-09T14:08:38.249Z,100038.69
2023-01-09T14:13:44.941Z,100048.66
2023-01-09T14:18:55.433Z,100067.31
2023-01-09T14:24:06.626Z,100072.31
2023-01-09T14:29:39.518Z,100090.53
2023-01-09T14:34:47.461Z,100108.63
2023-01-09T14:39:53.017Z,100110.19
2023-01-09T14:45:04.318Z,100118.84
2023-01-09T14:50:16.059Z,100137.41
2023-01-09T14:55:26.127Z,100144.59
2023-01-09T15:00:29.197Z,100158.13
2023-01-09T15:05:32.871Z,100175.63
2023-01-09T15:10:40.345Z,100190.63
2023-01-09T15:15:47.144Z,100208.19
2023-01-09T15:20:54.732Z,100210.78
2023-01-09T15:26:12.964Z,100211.97
2023-01-09T15:31:19.242Z,100218.06
2023-01-09T15:36:26.009Z,100238.19
2023-01-09T15:41:50.398Z,100246.47
2023-01-09T15:46:56.934Z,100249.34
2023-01-09T15:52:00.983Z,100276.78
2023-01-09T15:57:44.735Z,100287.94
2023-01-09T16:03:05.983Z,100298.81
2023-01-09T16:08:27.230Z,100285.06
2023-01-09T16:13:34.420Z,100312.31
2023-01-09T16:18:39.491Z,100317.53
2023-01-09T16:23:53.098Z,100326.72
2023-01-09T16:29:18.372Z,100338.81
2023-01-09T16:34:26.147Z,100354.00
2023-01-09T16:39:29.409Z,100369.84
2023-01-09T16:44:33.840Z,100385.75
2023-01-09T16:49:36.995Z,100393.97
2023-01-09T16:54:40.920Z,100395.84
2023-01-09T16:59:46.083Z,100397.44
2023-01-09T17:04:50.323Z,100415.94
2023-01-09T17:09:55.726Z,100412.63
2023-01-09T17:15:04.914Z,100424.41
2023-01-09T17:20:18.938Z,100423.31
2023-01-09T17:25:41.992Z,100434.63
2023-01-09T17:30:46.525Z,100452.38
2023-01-09T17:35:49.738Z,100459.25
2023-01-09T17:40:56.196Z,100477.41
2023-01-09T17:46:01.206Z,100483.69
2023-01-09T17:51:04.358Z,100498.88
2023-01-09T17:56:09.707Z,100505.00
2023-01-09T18:01:16.002Z,100527.94
2023-01-09T18:06:21.771Z,100541.81
2023-01-09T18:11:30.673Z,100539.66
2023-01-09T18:16:35.827Z,100543.03
2023-01-09T18:21:38.966Z,100575.09
2023-01-09T18:26:42.089Z,100577.34
2023-01-09T18:31:46.869Z,100596.88
2023-01-09T18:36:50.183Z,100614.66
2023-01-09T18:41:55.860Z,100613.75
2023-01-09T18:47:03.197Z,100628.75
2023-01-09T18:52:17.095Z,100642.81
2023-01-09T18:57:20.367Z,100655.53
2023-01-09T19:02:30.968Z,100665.16
2023-01-09T19:07:34.083Z,100677.25
2023-01-09T19:12:37.599Z,100682.13
2023-01-09T19:17:43.688Z,100695.94
2023-01-09T19:22:46.808Z,100709.41
2023-01-09T19:27:55.788Z,100741.13
2023-01-09T19:33:08.027Z,100737.22
2023-01-09T19:38:18.764Z,100758.22
2023-01-09T19:43:27.872Z,100768.88
2023-01-09T19:48:32.696Z,100783.50
2023-01-09T19:53:40.113Z,100783.84
2023-01-09T19:58:45.086Z,100805.25
2023-01-09T20:03:50.293Z,100828.06
2023-01-09T20:08:55.339Z,100819.66
2023-01-09T20:13:58.488Z,100822.84
2023-01-09T20:19:07.423Z,100845.22
2023-01-09T20:24:13.234Z,100841.91
2023-01-09T20:29:16.888Z,100867.34
2023-01-09T20:34:21.360Z,100876.72
2023-01-09T20:39:26.607Z,100892.88
2023-01-09T20:44:29.721Z,100894.56
2023-01-09T20:49:34.268Z,100905.81
2023-01-09T20:54:41.234Z,100913.47
2023-01-09T20:59:44.374Z,100930.91
2023-01-09T21:04:48.891Z,100933.06
2023-01-09T21:09:54.833Z,100929.81
2023-01-09T21:15:02.120Z,100939.44
2023-01-09T21:20:09.803Z,100944.97
2023-01-09T21:25:12.855Z,100945.75
2023-01-09T21:30:16.417Z,100955.22
2023-01-09T21:35:21.388Z,100956.19
2023-01-09T21:40:24.671Z,100962.03
2023-01-09T21:45:45.057Z,100971.22
2023-01-09T21:50:58.367Z,100971.94
2023-01-09T21:56:04.524Z,100990.84
2023-01-09T22:01:07.776Z,100980.56
2023-01-09T22:06:12.577Z,100989.50
2023-01-09T22:11:16.235Z,101010.16
2023-01-09T22:16:27.005Z,101020.25
2023-01-09T22:21:31.628Z,101040.38
2023-01-09T22:26:35.397Z,101046.56
2023-01-09T22:31:40.185Z,101060.44
2023-01-09T22:36:46.121Z,101083.91
2023-01-09T22:41:52.547Z,101101.72
2023-01-09T22:46:58.488Z,101092.16
2023-01-09T22:52:02.886Z,101106.25
2023-01-09T22:57:05.831Z,101117.53
2023-01-09T23:02:09.098Z,101130.03
2023-01-09T23:07:14.147Z,101150.69
2023-01-09T23:12:17.187Z,101152.81
2023-01-09T23:17:20.303Z,101166.69
2023-01-09T23:22:25.953Z,101181.78
2023-01-09T23:27:29.016Z,101184.41
2023-01-09T23:32:32.151Z,101176.78
2023-01-09T23:37:37.120Z,101190.78
2023-01-09T23:42:57.963Z,101205.22
2023-01-09T23:48:01.105Z,101208.53
2023-01-09T23:53:05.960Z,101224.88
2023-01-09T23:58:08.988Z,101233.47
